sensor_id;sensor_type;location;lat;lon;timestamp;P1;durP1;ratioP1;P2;durP2;ratioP2
37305;SDS011;23193;42.656;21.170;2023-02-13T00:01:07;120.80;;;55.92;;
37305;SDS011;23193;42.656;21.170;2023-02-13T00:03:33;101.00;;;50.38;;
37305;SDS011;23193;42.656;21.170;2023-02-13T00:05:59;103.38;;;50.53;;
37305;SDS011;23193;42.656;21.170;2023-02-13T00:08:25;101.47;;;48.35;;
37305;SDS011;23193;42.656;21.170;2023-02-13T00:10:51;99.75;;;46.38;;
37305;SDS011;23193;42.656;21.170;2023-02-13T00:13:18;95.88;;;46.80;;
37305;SDS011;23193;42.656;21.170;2023-02-13T00:15:44;146.68;;;69.18;;
37305;SDS011;23193;42.656;21.170;2023-02-13T00:18:10;114.43;;;54.42;;
37305;SDS011;23193;42.656;21.170;2023-02-13T00:20:36;99.80;;;46.95;;
37305;SDS011;23193;42.656;21.170;2023-02-13T00:23:02;94.35;;;45.42;;
37305;SDS011;23193;42.656;21.170;2023-02-13T00:25:28;90.72;;;44.75;;
37305;SDS011;23193;42.656;21.170;2023-02-13T00:27:54;89.10;;;45.33;;
37305;SDS011;23193;42.656;21.170;2023-02-13T00:30:20;88.53;;;42.85;;
37305;SDS011;23193;42.656;21.170;2023-02-13T00:32:46;85.30;;;40.95;;
37305;SDS011;23193;42.656;21.170;2023-02-13T00:35:12;116.13;;;53.85;;
37305;SDS011;23193;42.656;21.170;2023-02-13T00:37:38;100.63;;;48.30;;
37305;SDS011;23193;42.656;21.170;2023-02-13T00:40:05;71.22;;;36.22;;
37305;SDS011;23193;42.656;21.170;2023-02-13T00:42:31;80.57;;;41.33;;
37305;SDS011;23193;42.656;21.170;2023-02-13T00:44:57;80.93;;;42.83;;
37305;SDS011;23193;42.656;21.170;2023-02-13T00:47:23;83.65;;;43.90;;
37305;SDS011;23193;42.656;21.170;2023-02-13T00:49:49;93.65;;;44.75;;
37305;SDS011;23193;42.656;21.170;2023-02-13T00:52:15;120.65;;;59.30;;
37305;SDS011;23193;42.656;21.170;2023-02-13T00:54:41;96.47;;;48.35;;
37305;SDS011;23193;42.656;21.170;2023-02-13T00:57:07;106.05;;;53.33;;
37305;SDS011;23193;42.656;21.170;2023-02-13T00:59:33;110.57;;;53.80;;
37305;SDS011;23193;42.656;21.170;2023-02-13T01:02:00;105.97;;;54.03;;
37305;SDS011;23193;42.656;21.170;2023-02-13T01:04:26;113.28;;;57.78;;
37305;SDS011;23193;42.656;21.170;2023-02-13T01:06:52;122.43;;;59.33;;
37305;SDS011;23193;42.656;21.170;2023-02-13T01:09:18;122.80;;;59.35;;
37305;SDS011;23193;42.656;21.170;2023-02-13T01:11:44;123.78;;;59.00;;
37305;SDS011;23193;42.656;21.170;2023-02-13T01:14:10;116.57;;;59.92;;
37305;SDS011;23193;42.656;21.170;2023-02-13T01:16:36;119.25;;;61.28;;
37305;SDS011;23193;42.656;21.170;2023-02-13T01:19:03;115.22;;;55.88;;
37305;SDS011;23193;42.656;21.170;2023-02-13T01:21:29;104.05;;;53.42;;
37305;SDS011;23193;42.656;21.170;2023-02-13T01:23:55;102.03;;;52.10;;
37305;SDS011;23193;42.656;21.170;2023-02-13T01:26:22;107.50;;;53.78;;
37305;SDS011;23193;42.656;21.170;2023-02-13T01:28:54;115.38;;;56.08;;
37305;SDS011;23193;42.656;21.170;2023-02-13T01:31:22;120.00;;;58.85;;
37305;SDS011;23193;42.656;21.170;2023-02-13T01:33:48;113.40;;;56.70;;
37305;SDS011;23193;42.656;21.170;2023-02-13T01:36:14;110.03;;;56.17;;
37305;SDS011;23193;42.656;21.170;2023-02-13T01:38:40;111.35;;;54.53;;
37305;SDS011;23193;42.656;21.170;2023-02-13T01:41:07;105.22;;;55.15;;
37305;SDS011;23193;42.656;21.170;2023-02-13T01:43:46;117.18;;;60.67;;
37305;SDS011;23193;42.656;21.170;2023-02-13T01:46:14;106.00;;;54.00;;
37305;SDS011;23193;42.656;21.170;2023-02-13T01:48:41;104.82;;;54.08;;
37305;SDS011;23193;42.656;21.170;2023-02-13T01:51:09;108.28;;;56.20;;
37305;SDS011;23193;42.656;21.170;2023-02-13T01:53:42;111.57;;;54.30;;
37305;SDS011;23193;42.656;21.170;2023-02-13T01:59:09;125.03;;;64.10;;
37305;SDS011;23193;42.656;21.170;2023-02-13T02:01:36;131.82;;;63.70;;
37305;SDS011;23193;42.656;21.170;2023-02-13T02:04:12;145.10;;;71.00;;
37305;SDS011;23193;42.656;21.170;2023-02-13T02:06:41;137.43;;;66.57;;
37305;SDS011;23193;42.656;21.170;2023-02-13T02:09:12;135.80;;;68.53;;
37305;SDS011;23193;42.656;21.170;2023-02-13T02:14:25;131.43;;;65.15;;
37305;SDS011;23193;42.656;21.170;2023-02-13T02:16:51;136.52;;;65.40;;
37305;SDS011;23193;42.656;21.170;2023-02-13T02:19:34;136.73;;;64.50;;
37305;SDS011;23193;42.656;21.170;2023-02-13T02:25:34;130.38;;;62.80;;
37305;SDS011;23193;42.656;21.170;2023-02-13T02:40:09;122.95;;;62.83;;
37305;SDS011;23193;42.656;21.170;2023-02-13T02:42:53;120.78;;;61.53;;
37305;SDS011;23193;42.656;21.170;2023-02-13T02:48:06;111.38;;;55.80;;
37305;SDS011;23193;42.656;21.170;2023-02-13T02:50:56;119.90;;;57.45;;
37305;SDS011;23193;42.656;21.170;2023-02-13T02:53:37;112.10;;;55.67;;
37305;SDS011;23193;42.656;21.170;2023-02-13T02:56:10;124.88;;;58.63;;
37305;SDS011;23193;42.656;21.170;2023-02-13T02:58:56;130.20;;;60.65;;
37305;SDS011;23193;42.656;21.170;2023-02-13T03:01:44;133.40;;;61.20;;
37305;SDS011;23193;42.656;21.170;2023-02-13T03:04:36;129.38;;;62.28;;
37305;SDS011;23193;42.656;21.170;2023-02-13T03:07:22;126.32;;;61.85;;
37305;SDS011;23193;42.656;21.170;2023-02-13T03:09:51;125.07;;;62.22;;
37305;SDS011;23193;42.656;21.170;2023-02-13T03:12:47;136.52;;;62.25;;
37305;SDS011;23193;42.656;21.170;2023-02-13T03:15:33;128.23;;;62.50;;
37305;SDS011;23193;42.656;21.170;2023-02-13T03:18:20;134.75;;;61.85;;
37305;SDS011;23193;42.656;21.170;2023-02-13T03:21:12;137.40;;;62.42;;
37305;SDS011;23193;42.656;21.170;2023-02-13T03:24:03;127.30;;;61.88;;
37305;SDS011;23193;42.656;21.170;2023-02-13T03:26:55;122.63;;;57.28;;
37305;SDS011;23193;42.656;21.170;2023-02-13T03:29:20;108.63;;;54.78;;
37305;SDS011;23193;42.656;21.170;2023-02-13T03:34:34;113.65;;;53.90;;
37305;SDS011;23193;42.656;21.170;2023-02-13T03:37:25;109.05;;;53.00;;
37305;SDS011;23193;42.656;21.170;2023-02-13T03:40:57;110.75;;;54.88;;
37305;SDS011;23193;42.656;21.170;2023-02-13T03:45:28;112.43;;;53.45;;
37305;SDS011;23193;42.656;21.170;2023-02-13T03:48:13;127.25;;;59.35;;
37305;SDS011;23193;42.656;21.170;2023-02-13T03:50:59;142.75;;;67.30;;
37305;SDS011;23193;42.656;21.170;2023-02-13T03:53:27;149.05;;;72.40;;
37305;SDS011;23193;42.656;21.170;2023-02-13T03:55:54;146.50;;;68.10;;
37305;SDS011;23193;42.656;21.170;2023-02-13T03:58:40;135.55;;;63.40;;
37305;SDS011;23193;42.656;21.170;2023-02-13T04:01:27;125.35;;;59.53;;
37305;SDS011;23193;42.656;21.170;2023-02-13T04:03:56;119.18;;;58.85;;
37305;SDS011;23193;42.656;21.170;2023-02-13T04:06:26;116.43;;;57.97;;
37305;SDS011;23193;42.656;21.170;2023-02-13T04:08:52;136.57;;;61.30;;
37305;SDS011;23193;42.656;21.170;2023-02-13T04:13:49;126.85;;;60.58;;
37305;SDS011;23193;42.656;21.170;2023-02-13T04:16:21;119.07;;;54.97;;
37305;SDS011;23193;42.656;21.170;2023-02-13T04:18:48;111.78;;;52.67;;
37305;SDS011;23193;42.656;21.170;2023-02-13T04:21:16;101.00;;;50.25;;
37305;SDS011;23193;42.656;21.170;2023-02-13T04:23:42;87.35;;;46.22;;
37305;SDS011;23193;42.656;21.170;2023-02-13T04:26:11;224.02;;;100.35;;
37305;SDS011;23193;42.656;21.170;2023-02-13T04:28:39;276.58;;;120.35;;
37305;SDS011;23193;42.656;21.170;2023-02-13T04:31:05;270.77;;;121.68;;
37305;SDS011;23193;42.656;21.170;2023-02-13T04:33:31;169.88;;;76.88;;
37305;SDS011;23193;42.656;21.170;2023-02-13T04:35:57;145.73;;;70.40;;
37305;SDS011;23193;42.656;21.170;2023-02-13T04:38:23;209.13;;;93.50;;
37305;SDS011;23193;42.656;21.170;2023-02-13T04:40:49;143.52;;;66.63;;
37305;SDS011;23193;42.656;21.170;2023-02-13T04:43:15;171.82;;;78.50;;
37305;SDS011;23193;42.656;21.170;2023-02-13T04:45:42;146.40;;;67.50;;
37305;SDS011;23193;42.656;21.170;2023-02-13T04:48:09;155.73;;;70.47;;
37305;SDS011;23193;42.656;21.170;2023-02-13T04:50:35;157.18;;;72.50;;
37305;SDS011;23193;42.656;21.170;2023-02-13T04:53:01;166.65;;;76.82;;
37305;SDS011;23193;42.656;21.170;2023-02-13T04:55:27;164.25;;;73.63;;
37305;SDS011;23193;42.656;21.170;2023-02-13T04:57:54;243.80;;;108.05;;
37305;SDS011;23193;42.656;21.170;2023-02-13T05:00:21;223.68;;;97.75;;
37305;SDS011;23193;42.656;21.170;2023-02-13T05:02:47;200.60;;;88.32;;
37305;SDS011;23193;42.656;21.170;2023-02-13T05:05:13;224.73;;;98.25;;
37305;SDS011;23193;42.656;21.170;2023-02-13T05:07:40;210.57;;;97.32;;
37305;SDS011;23193;42.656;21.170;2023-02-13T05:10:06;181.27;;;79.82;;
37305;SDS011;23193;42.656;21.170;2023-02-13T05:12:32;178.98;;;78.90;;
37305;SDS011;23193;42.656;21.170;2023-02-13T05:14:58;179.13;;;82.05;;
37305;SDS011;23193;42.656;21.170;2023-02-13T05:17:24;180.63;;;84.32;;
37305;SDS011;23193;42.656;21.170;2023-02-13T05:19:50;177.77;;;83.28;;
37305;SDS011;23193;42.656;21.170;2023-02-13T05:22:16;183.18;;;84.53;;
37305;SDS011;23193;42.656;21.170;2023-02-13T05:25:01;181.75;;;83.10;;
37305;SDS011;23193;42.656;21.170;2023-02-13T05:27:27;187.63;;;82.40;;
37305;SDS011;23193;42.656;21.170;2023-02-13T05:29:53;208.07;;;88.93;;
37305;SDS011;23193;42.656;21.170;2023-02-13T05:32:19;203.20;;;92.25;;
37305;SDS011;23193;42.656;21.170;2023-02-13T05:34:45;243.68;;;106.95;;
37305;SDS011;23193;42.656;21.170;2023-02-13T05:37:11;269.25;;;119.82;;
37305;SDS011;23193;42.656;21.170;2023-02-13T05:39:37;238.05;;;103.88;;
37305;SDS011;23193;42.656;21.170;2023-02-13T05:42:04;243.65;;;111.07;;
37305;SDS011;23193;42.656;21.170;2023-02-13T05:44:30;264.25;;;117.60;;
37305;SDS011;23193;42.656;21.170;2023-02-13T05:46:56;261.80;;;115.72;;
37305;SDS011;23193;42.656;21.170;2023-02-13T05:49:22;246.45;;;109.07;;
37305;SDS011;23193;42.656;21.170;2023-02-13T05:51:48;244.23;;;111.57;;
37305;SDS011;23193;42.656;21.170;2023-02-13T05:54:17;272.95;;;118.13;;
37305;SDS011;23193;42.656;21.170;2023-02-13T05:56:43;299.85;;;124.65;;
37305;SDS011;23193;42.656;21.170;2023-02-13T05:59:09;274.27;;;118.03;;
37305;SDS011;23193;42.656;21.170;2023-02-13T06:01:36;297.23;;;131.18;;
37305;SDS011;23193;42.656;21.170;2023-02-13T06:04:02;280.38;;;122.07;;
37305;SDS011;23193;42.656;21.170;2023-02-13T06:06:28;284.95;;;123.47;;
37305;SDS011;23193;42.656;21.170;2023-02-13T06:08:54;277.92;;;123.03;;
37305;SDS011;23193;42.656;21.170;2023-02-13T06:11:20;271.08;;;118.03;;
37305;SDS011;23193;42.656;21.170;2023-02-13T06:13:46;259.95;;;112.18;;
37305;SDS011;23193;42.656;21.170;2023-02-13T06:16:12;300.60;;;119.55;;
37305;SDS011;23193;42.656;21.170;2023-02-13T06:18:38;381.38;;;141.20;;
37305;SDS011;23193;42.656;21.170;2023-02-13T06:21:05;291.13;;;116.63;;
37305;SDS011;23193;42.656;21.170;2023-02-13T06:23:31;257.42;;;111.28;;
37305;SDS011;23193;42.656;21.170;2023-02-13T06:26:04;250.77;;;110.05;;
37305;SDS011;23193;42.656;21.170;2023-02-13T06:28:30;257.95;;;105.68;;
37305;SDS011;23193;42.656;21.170;2023-02-13T06:30:57;208.68;;;95.68;;
37305;SDS011;23193;42.656;21.170;2023-02-13T06:33:23;215.85;;;97.65;;
37305;SDS011;23193;42.656;21.170;2023-02-13T06:35:49;219.23;;;98.50;;
37305;SDS011;23193;42.656;21.170;2023-02-13T06:38:15;226.43;;;101.30;;
37305;SDS011;23193;42.656;21.170;2023-02-13T06:40:45;238.53;;;109.43;;
37305;SDS011;23193;42.656;21.170;2023-02-13T06:43:11;244.20;;;104.57;;
37305;SDS011;23193;42.656;21.170;2023-02-13T06:45:38;220.38;;;101.53;;
37305;SDS011;23193;42.656;21.170;2023-02-13T06:48:04;236.07;;;105.57;;
37305;SDS011;23193;42.656;21.170;2023-02-13T06:50:30;225.80;;;99.38;;
37305;SDS011;23193;42.656;21.170;2023-02-13T06:52:56;206.48;;;94.95;;
37305;SDS011;23193;42.656;21.170;2023-02-13T06:55:22;211.13;;;96.50;;
37305;SDS011;23193;42.656;21.170;2023-02-13T06:57:49;213.27;;;96.72;;
37305;SDS011;23193;42.656;21.170;2023-02-13T07:00:15;191.32;;;89.00;;
37305;SDS011;23193;42.656;21.170;2023-02-13T07:02:43;153.30;;;73.20;;
37305;SDS011;23193;42.656;21.170;2023-02-13T07:05:09;156.07;;;77.18;;
37305;SDS011;23193;42.656;21.170;2023-02-13T07:07:36;165.27;;;76.93;;
37305;SDS011;23193;42.656;21.170;2023-02-13T07:10:03;205.60;;;96.95;;
37305;SDS011;23193;42.656;21.170;2023-02-13T07:12:31;309.95;;;135.38;;
37305;SDS011;23193;42.656;21.170;2023-02-13T07:14:57;326.98;;;134.65;;
37305;SDS011;23193;42.656;21.170;2023-02-13T07:17:23;496.40;;;204.32;;
37305;SDS011;23193;42.656;21.170;2023-02-13T07:19:50;416.38;;;165.88;;
37305;SDS011;23193;42.656;21.170;2023-02-13T07:22:17;278.35;;;123.85;;
37305;SDS011;23193;42.656;21.170;2023-02-13T07:24:43;256.95;;;122.95;;
37305;SDS011;23193;42.656;21.170;2023-02-13T07:27:09;202.23;;;99.00;;
37305;SDS011;23193;42.656;21.170;2023-02-13T07:29:35;149.57;;;73.68;;
37305;SDS011;23193;42.656;21.170;2023-02-13T07:32:01;163.25;;;77.90;;
37305;SDS011;23193;42.656;21.170;2023-02-13T07:34:27;158.02;;;75.10;;
37305;SDS011;23193;42.656;21.170;2023-02-13T07:36:53;163.63;;;77.65;;
37305;SDS011;23193;42.656;21.170;2023-02-13T07:39:19;137.95;;;69.43;;
37305;SDS011;23193;42.656;21.170;2023-02-13T07:41:45;158.77;;;76.30;;
37305;SDS011;23193;42.656;21.170;2023-02-13T07:44:11;152.40;;;71.00;;
37305;SDS011;23193;42.656;21.170;2023-02-13T07:46:38;162.18;;;74.45;;
37305;SDS011;23193;42.656;21.170;2023-02-13T07:49:04;148.82;;;73.25;;
37305;SDS011;23193;42.656;21.170;2023-02-13T07:51:30;153.95;;;73.35;;
37305;SDS011;23193;42.656;21.170;2023-02-13T07:53:56;141.02;;;68.18;;
37305;SDS011;23193;42.656;21.170;2023-02-13T07:56:22;130.05;;;61.65;;
37305;SDS011;23193;42.656;21.170;2023-02-13T07:58:48;127.35;;;60.63;;
37305;SDS011;23193;42.656;21.170;2023-02-13T08:01:15;124.75;;;60.35;;
37305;SDS011;23193;42.656;21.170;2023-02-13T08:03:41;121.95;;;59.67;;
37305;SDS011;23193;42.656;21.170;2023-02-13T08:06:07;135.50;;;65.30;;
37305;SDS011;23193;42.656;21.170;2023-02-13T08:08:34;140.73;;;65.07;;
37305;SDS011;23193;42.656;21.170;2023-02-13T08:11:04;145.52;;;68.00;;
37305;SDS011;23193;42.656;21.170;2023-02-13T08:13:49;130.82;;;62.22;;
37305;SDS011;23193;42.656;21.170;2023-02-13T08:16:15;119.13;;;58.50;;
37305;SDS011;23193;42.656;21.170;2023-02-13T08:18:41;107.00;;;53.88;;
37305;SDS011;23193;42.656;21.170;2023-02-13T08:21:07;99.53;;;48.70;;
37305;SDS011;23193;42.656;21.170;2023-02-13T08:23:33;107.72;;;50.15;;
37305;SDS011;23193;42.656;21.170;2023-02-13T08:26:00;97.97;;;49.70;;
37305;SDS011;23193;42.656;21.170;2023-02-13T08:28:27;91.82;;;46.55;;
37305;SDS011;23193;42.656;21.170;2023-02-13T08:30:53;86.70;;;44.17;;
37305;SDS011;23193;42.656;21.170;2023-02-13T08:33:20;87.20;;;45.42;;
37305;SDS011;23193;42.656;21.170;2023-02-13T08:35:46;89.15;;;44.30;;
37305;SDS011;23193;42.656;21.170;2023-02-13T08:38:12;109.25;;;53.38;;
37305;SDS011;23193;42.656;21.170;2023-02-13T08:40:38;117.47;;;53.00;;
37305;SDS011;23193;42.656;21.170;2023-02-13T08:43:04;108.30;;;53.13;;
37305;SDS011;23193;42.656;21.170;2023-02-13T08:45:31;100.05;;;48.50;;
37305;SDS011;23193;42.656;21.170;2023-02-13T08:47:58;88.32;;;43.38;;
37305;SDS011;23193;42.656;21.170;2023-02-13T08:50:25;85.30;;;47.97;;
37305;SDS011;23193;42.656;21.170;2023-02-13T08:52:51;88.57;;;43.25;;
37305;SDS011;23193;42.656;21.170;2023-02-13T08:55:18;90.45;;;43.97;;
37305;SDS011;23193;42.656;21.170;2023-02-13T08:57:44;98.03;;;44.45;;
37305;SDS011;23193;42.656;21.170;2023-02-13T09:00:10;82.88;;;42.13;;
37305;SDS011;23193;42.656;21.170;2023-02-13T09:02:36;86.00;;;44.08;;
37305;SDS011;23193;42.656;21.170;2023-02-13T09:05:02;85.22;;;41.40;;
37305;SDS011;23193;42.656;21.170;2023-02-13T09:07:28;77.18;;;40.92;;
37305;SDS011;23193;42.656;21.170;2023-02-13T09:09:56;78.68;;;39.58;;
37305;SDS011;23193;42.656;21.170;2023-02-13T09:12:22;91.13;;;42.13;;
37305;SDS011;23193;42.656;21.170;2023-02-13T09:14:48;95.10;;;43.40;;
37305;SDS011;23193;42.656;21.170;2023-02-13T09:17:14;88.57;;;42.58;;
37305;SDS011;23193;42.656;21.170;2023-02-13T09:19:42;76.95;;;39.30;;
37305;SDS011;23193;42.656;21.170;2023-02-13T09:22:10;69.38;;;36.97;;
37305;SDS011;23193;42.656;21.170;2023-02-13T09:24:36;67.68;;;36.88;;
37305;SDS011;23193;42.656;21.170;2023-02-13T09:27:05;65.07;;;34.42;;
37305;SDS011;23193;42.656;21.170;2023-02-13T09:29:32;64.97;;;34.58;;
37305;SDS011;23193;42.656;21.170;2023-02-13T09:31:59;64.35;;;33.53;;
37305;SDS011;23193;42.656;21.170;2023-02-13T09:34:25;84.88;;;41.00;;
37305;SDS011;23193;42.656;21.170;2023-02-13T09:36:51;74.43;;;37.83;;
37305;SDS011;23193;42.656;21.170;2023-02-13T09:39:18;66.88;;;34.78;;
37305;SDS011;23193;42.656;21.170;2023-02-13T09:41:44;58.42;;;32.97;;
37305;SDS011;23193;42.656;21.170;2023-02-13T09:47:00;54.03;;;30.75;;
37305;SDS011;23193;42.656;21.170;2023-02-13T09:49:29;60.67;;;31.52;;
37305;SDS011;23193;42.656;21.170;2023-02-13T09:51:56;54.30;;;31.52;;
37305;SDS011;23193;42.656;21.170;2023-02-13T09:54:22;58.95;;;32.95;;
37305;SDS011;23193;42.656;21.170;2023-02-13T10:01:47;77.05;;;41.88;;
37305;SDS011;23193;42.656;21.170;2023-02-13T10:06:49;292.52;;;132.40;;
37305;SDS011;23193;42.656;21.170;2023-02-13T10:21:35;39.03;;;18.95;;
37305;SDS011;23193;42.656;21.170;2023-02-13T10:24:10;23.52;;;13.27;;
37305;SDS011;23193;42.656;21.170;2023-02-13T10:26:38;31.00;;;14.60;;
37305;SDS011;23193;42.656;21.170;2023-02-13T10:29:30;224.05;;;117.25;;
37305;SDS011;23193;42.656;21.170;2023-02-13T10:32:18;614.95;;;371.77;;
37305;SDS011;23193;42.656;21.170;2023-02-13T10:34:47;828.35;;;495.77;;
37305;SDS011;23193;42.656;21.170;2023-02-13T10:37:16;611.05;;;320.40;;
37305;SDS011;23193;42.656;21.170;2023-02-13T10:39:46;627.05;;;347.35;;
37305;SDS011;23193;42.656;21.170;2023-02-13T10:49:59;32.28;;;15.38;;
37305;SDS011;23193;42.656;21.170;2023-02-13T10:57:36;32.80;;;19.33;;
37305;SDS011;23193;42.656;21.170;2023-02-13T11:00:17;114.68;;;62.30;;
37305;SDS011;23193;42.656;21.170;2023-02-13T11:02:46;245.05;;;139.35;;
37305;SDS011;23193;42.656;21.170;2023-02-13T11:05:23;414.42;;;297.25;;
37305;SDS011;23193;42.656;21.170;2023-02-13T11:07:49;48.83;;;30.42;;
37305;SDS011;23193;42.656;21.170;2023-02-13T11:10:20;67.38;;;37.63;;
37305;SDS011;23193;42.656;21.170;2023-02-13T11:12:47;28.88;;;18.05;;
37305;SDS011;23193;42.656;21.170;2023-02-13T11:15:23;30.23;;;14.23;;
37305;SDS011;23193;42.656;21.170;2023-02-13T11:17:50;399.75;;;197.45;;
37305;SDS011;23193;42.656;21.170;2023-02-13T11:20:56;121.00;;;73.07;;
37305;SDS011;23193;42.656;21.170;2023-02-13T11:26:03;225.68;;;133.07;;
37305;SDS011;23193;42.656;21.170;2023-02-13T11:28:33;133.82;;;92.40;;
37305;SDS011;23193;42.656;21.170;2023-02-13T11:31:11;58.85;;;39.55;;
37305;SDS011;23193;42.656;21.170;2023-02-13T11:33:37;24.95;;;13.05;;
37305;SDS011;23193;42.656;21.170;2023-02-13T11:36:05;46.22;;;27.80;;
37305;SDS011;23193;42.656;21.170;2023-02-13T11:38:31;72.57;;;60.00;;
37305;SDS011;23193;42.656;21.170;2023-02-13T11:43:33;24.70;;;11.40;;
37305;SDS011;23193;42.656;21.170;2023-02-13T11:46:07;34.40;;;13.63;;
37305;SDS011;23193;42.656;21.170;2023-02-13T11:48:35;23.17;;;10.68;;
37305;SDS011;23193;42.656;21.170;2023-02-13T11:51:01;23.00;;;10.85;;
37305;SDS011;23193;42.656;21.170;2023-02-13T11:53:29;25.52;;;11.98;;
37305;SDS011;23193;42.656;21.170;2023-02-13T11:56:14;26.80;;;11.63;;
37305;SDS011;23193;42.656;21.170;2023-02-13T11:58:41;17.45;;;9.05;;
37305;SDS011;23193;42.656;21.170;2023-02-13T12:01:09;18.63;;;8.98;;
37305;SDS011;23193;42.656;21.170;2023-02-13T12:03:36;23.52;;;12.70;;
37305;SDS011;23193;42.656;21.170;2023-02-13T12:06:10;23.20;;;10.73;;
37305;SDS011;23193;42.656;21.170;2023-02-13T12:08:41;21.10;;;10.93;;
37305;SDS011;23193;42.656;21.170;2023-02-13T12:13:39;21.65;;;10.85;;
37305;SDS011;23193;42.656;21.170;2023-02-13T12:16:10;28.50;;;11.70;;
37305;SDS011;23193;42.656;21.170;2023-02-13T12:18:40;24.30;;;10.07;;
37305;SDS011;23193;42.656;21.170;2023-02-13T12:26:08;19.70;;;11.23;;
37305;SDS011;23193;42.656;21.170;2023-02-13T12:46:33;14.30;;;9.13;;
37305;SDS011;23193;42.656;21.170;2023-02-13T12:52:07;22.55;;;10.90;;
37305;SDS011;23193;42.656;21.170;2023-02-13T12:55:02;19.90;;;9.57;;
37305;SDS011;23193;42.656;21.170;2023-02-13T13:05:23;36.15;;;20.67;;
37305;SDS011;23193;42.656;21.170;2023-02-13T13:15:31;194.98;;;106.63;;
37305;SDS011;23193;42.656;21.170;2023-02-13T13:26:05;432.25;;;282.13;;
37305;SDS011;23193;42.656;21.170;2023-02-13T13:28:43;213.75;;;129.63;;
37305;SDS011;23193;42.656;21.170;2023-02-13T13:31:11;110.95;;;74.97;;
37305;SDS011;23193;42.656;21.170;2023-02-13T13:33:44;21.48;;;10.32;;
37305;SDS011;23193;42.656;21.170;2023-02-13T13:36:30;19.88;;;9.63;;
37305;SDS011;23193;42.656;21.170;2023-02-13T13:41:39;19.10;;;10.45;;
37305;SDS011;23193;42.656;21.170;2023-02-13T13:44:31;18.23;;;7.65;;
37305;SDS011;23193;42.656;21.170;2023-02-13T13:46:57;19.25;;;8.65;;
37305;SDS011;23193;42.656;21.170;2023-02-13T13:49:58;43.08;;;20.65;;
37305;SDS011;23193;42.656;21.170;2023-02-13T13:52:24;244.73;;;80.20;;
37305;SDS011;23193;42.656;21.170;2023-02-13T13:54:51;51.65;;;22.67;;
37305;SDS011;23193;42.656;21.170;2023-02-13T13:57:22;94.72;;;41.08;;
37305;SDS011;23193;42.656;21.170;2023-02-13T14:07:32;38.38;;;19.08;;
37305;SDS011;23193;42.656;21.170;2023-02-13T14:09:59;85.25;;;44.10;;
37305;SDS011;23193;42.656;21.170;2023-02-13T14:14:55;320.98;;;197.85;;
37305;SDS011;23193;42.656;21.170;2023-02-13T14:17:46;212.90;;;124.60;;
37305;SDS011;23193;42.656;21.170;2023-02-13T14:21:10;68.13;;;40.90;;
37305;SDS011;23193;42.656;21.170;2023-02-13T14:23:27;44.03;;;25.27;;
37305;SDS011;23193;42.656;21.170;2023-02-13T14:28:36;62.10;;;38.50;;
37305;SDS011;23193;42.656;21.170;2023-02-13T14:31:06;32.15;;;18.70;;
37305;SDS011;23193;42.656;21.170;2023-02-13T14:33:35;137.82;;;82.57;;
37305;SDS011;23193;42.656;21.170;2023-02-13T14:36:07;95.10;;;50.90;;
37305;SDS011;23193;42.656;21.170;2023-02-13T14:38:42;44.75;;;23.48;;
37305;SDS011;23193;42.656;21.170;2023-02-13T14:41:39;34.47;;;15.52;;
37305;SDS011;23193;42.656;21.170;2023-02-13T14:43:54;30.70;;;16.70;;
37305;SDS011;23193;42.656;21.170;2023-02-13T14:48:52;33.15;;;16.75;;
37305;SDS011;23193;42.656;21.170;2023-02-13T14:51:23;29.35;;;15.38;;
37305;SDS011;23193;42.656;21.170;2023-02-13T14:53:57;38.17;;;19.00;;
37305;SDS011;23193;42.656;21.170;2023-02-13T14:56:24;30.83;;;16.95;;
37305;SDS011;23193;42.656;21.170;2023-02-13T14:58:52;32.70;;;15.63;;
37305;SDS011;23193;42.656;21.170;2023-02-13T15:01:30;53.67;;;26.00;;
37305;SDS011;23193;42.656;21.170;2023-02-13T15:04:02;47.70;;;20.85;;
37305;SDS011;23193;42.656;21.170;2023-02-13T15:06:31;30.90;;;14.43;;
37305;SDS011;23193;42.656;21.170;2023-02-13T15:08:59;27.73;;;15.15;;
37305;SDS011;23193;42.656;21.170;2023-02-13T15:11:37;48.40;;;23.17;;
37305;SDS011;23193;42.656;21.170;2023-02-13T15:14:16;39.58;;;20.30;;
37305;SDS011;23193;42.656;21.170;2023-02-13T15:16:42;40.60;;;22.48;;
37305;SDS011;23193;42.656;21.170;2023-02-13T15:19:16;33.33;;;16.92;;
37305;SDS011;23193;42.656;21.170;2023-02-13T15:22:01;43.45;;;22.00;;
37305;SDS011;23193;42.656;21.170;2023-02-13T15:24:31;67.35;;;32.28;;
37305;SDS011;23193;42.656;21.170;2023-02-13T15:26:59;71.88;;;33.08;;
37305;SDS011;23193;42.656;21.170;2023-02-13T15:29:26;46.72;;;21.50;;
37305;SDS011;23193;42.656;21.170;2023-02-13T15:31:52;240.23;;;111.82;;
37305;SDS011;23193;42.656;21.170;2023-02-13T15:34:25;62.20;;;31.10;;
37305;SDS011;23193;42.656;21.170;2023-02-13T15:36:52;53.30;;;27.02;;
37305;SDS011;23193;42.656;21.170;2023-02-13T15:39:21;87.85;;;42.97;;
37305;SDS011;23193;42.656;21.170;2023-02-13T15:41:49;697.60;;;423.10;;
37305;SDS011;23193;42.656;21.170;2023-02-13T15:44:16;430.23;;;220.25;;
37305;SDS011;23193;42.656;21.170;2023-02-13T15:46:45;246.98;;;126.50;;
37305;SDS011;23193;42.656;21.170;2023-02-13T15:49:16;144.27;;;83.25;;
37305;SDS011;23193;42.656;21.170;2023-02-13T15:51:42;73.70;;;31.70;;
37305;SDS011;23193;42.656;21.170;2023-02-13T15:54:23;65.65;;;33.90;;
37305;SDS011;23193;42.656;21.170;2023-02-13T15:56:49;86.15;;;45.60;;
37305;SDS011;23193;42.656;21.170;2023-02-13T15:59:17;96.28;;;42.65;;
37305;SDS011;23193;42.656;21.170;2023-02-13T16:01:43;81.93;;;40.45;;
37305;SDS011;23193;42.656;21.170;2023-02-13T16:04:14;82.15;;;41.95;;
37305;SDS011;23193;42.656;21.170;2023-02-13T16:06:41;95.10;;;48.28;;
37305;SDS011;23193;42.656;21.170;2023-02-13T16:09:20;108.78;;;54.47;;
37305;SDS011;23193;42.656;21.170;2023-02-13T16:11:47;136.18;;;61.17;;
37305;SDS011;23193;42.656;21.170;2023-02-13T16:14:20;374.92;;;255.38;;
37305;SDS011;23193;42.656;21.170;2023-02-13T16:17:01;112.60;;;53.50;;
37305;SDS011;23193;42.656;21.170;2023-02-13T16:19:33;117.45;;;59.15;;
37305;SDS011;23193;42.656;21.170;2023-02-13T16:22:02;104.78;;;50.03;;
37305;SDS011;23193;42.656;21.170;2023-02-13T16:24:29;117.40;;;56.47;;
37305;SDS011;23193;42.656;21.170;2023-02-13T16:26:56;149.07;;;69.40;;
37305;SDS011;23193;42.656;21.170;2023-02-13T16:29:23;92.47;;;45.88;;
37305;SDS011;23193;42.656;21.170;2023-02-13T16:31:53;149.95;;;67.70;;
37305;SDS011;23193;42.656;21.170;2023-02-13T16:34:28;163.63;;;70.40;;
37305;SDS011;23193;42.656;21.170;2023-02-13T16:36:55;202.27;;;81.93;;